Time;durP1;ratioP1;P1;durP2;ratioP2;P2;SDS_P1;SDS_P2;PMS_P1;PMS_P2;Temp;Humidity;BMP_temperature;BMP_pressure;BME280_temperature;BME280_humidity;BME280_pressure;Samples;Min_cycle;Max_cycle;Signal;HPM_P1;HPM_P2
2023/03/14 00:01:49;;;;;;;11.35;2.47;;;;;;;10.84;91.81;98901.34;5071812;28;20036;-78
2023/03/14 00:04:15;;;;;;;11.25;2.80;;;;;;;10.79;92.52;98896.53;5069490;28;20107;-78
2023/03/14 00:06:40;;;;;;;6.82;1.80;;;;;;;10.80;89.58;98894.72;5057149;28;20061;-79
2023/03/14 00:09:06;;;;;;;7.65;2.30;;;;;;;10.76;89.59;98896.03;5069483;28;20025;-78
2023/03/14 00:11:31;;;;;;;10.50;2.10;;;;;;;10.73;88.67;98891.09;5068356;28;20028;-78
2023/03/14 00:13:56;;;;;;;7.95;2.00;;;;;;;10.71;87.38;98890.44;5069645;28;20097;-77
2023/03/14 00:16:22;;;;;;;5.80;1.80;;;;;;;10.66;86.86;98898.81;5070504;28;20129;-78
2023/03/14 00:18:47;;;;;;;7.03;1.90;;;;;;;10.60;87.00;98895.03;5071737;28;20112;-79
2023/03/14 00:21:13;;;;;;;6.30;1.80;;;;;;;10.57;86.13;98908.50;5063849;28;20070;-78
2023/03/14 00:23:40;;;;;;;8.48;1.95;;;;;;;10.52;86.51;98916.06;5069913;28;20028;-79
2023/03/14 00:26:14;;;;;;;6.93;2.10;;;;;;;10.48;85.63;98912.13;5070323;28;20485;-78
2023/03/14 00:28:41;;;;;;;9.43;1.90;;;;;;;10.44;85.53;98918.69;5056588;28;20090;-79
2023/03/14 00:31:08;;;;;;;11.38;2.17;;;;;;;10.43;85.87;98921.47;5069426;28;20020;-79
2023/03/14 00:33:34;;;;;;;7.47;2.00;;;;;;;10.42;86.37;98914.56;5070345;28;20546;-78
2023/03/14 00:36:04;;;;;;;12.13;2.60;;;;;;;10.40;86.79;98922.59;5070426;28;20028;-79
2023/03/14 00:38:31;;;;;;;7.93;1.80;;;;;;;10.43;86.30;98924.09;5054266;28;20083;-79
2023/03/14 00:40:56;;;;;;;7.32;1.80;;;;;;;10.41;86.88;98924.25;5055797;28;20057;-78
2023/03/14 00:43:23;;;;;;;9.82;2.20;;;;;;;10.42;85.62;98918.03;5068198;28;20427;-78
2023/03/14 00:45:50;;;;;;;9.85;2.17;;;;;;;10.41;86.28;98926.88;5053337;28;20020;-78
2023/03/14 00:48:15;;;;;;;9.20;1.90;;;;;;;10.39;86.21;98926.19;5070884;28;20028;-77
2023/03/14 00:50:41;;;;;;;7.97;1.70;;;;;;;10.39;85.77;98926.19;5050424;28;20082;-77
2023/03/14 00:53:06;;;;;;;10.32;2.03;;;;;;;10.39;85.68;98926.19;5050627;28;20047;-78
2023/03/14 00:55:36;;;;;;;8.45;2.20;;;;;;;10.38;85.71;98932.44;5051413;28;20028;-78
2023/03/14 00:58:01;;;;;;;9.35;1.92;;;;;;;10.36;85.96;98926.50;5055609;28;20040;-80
2023/03/14 01:00:27;;;;;;;14.57;2.35;;;;;;;10.36;85.88;98910.75;5049391;28;20040;-77
2023/03/14 01:02:52;;;;;;;8.35;2.10;;;;;;;10.35;85.99;98911.72;5052912;28;20370;-78
2023/03/14 01:05:17;;;;;;;9.52;2.00;;;;;;;10.32;86.31;98914.69;5069578;28;20056;-78
2023/03/14 01:07:43;;;;;;;8.93;2.00;;;;;;;10.31;85.83;98902.50;5052484;28;20515;-77
2023/03/14 01:10:09;;;;;;;9.48;2.17;;;;;;;10.30;86.18;98909.56;5071952;28;20435;-77
2023/03/14 01:12:35;;;;;;;8.23;1.90;;;;;;;10.29;86.16;98915.00;5068340;28;20028;-78
2023/03/14 01:15:00;;;;;;;6.22;1.80;;;;;;;10.29;85.76;98902.69;5061380;28;20040;-78
2023/03/14 01:17:44;;;;;;;8.20;2.15;;;;;;;10.28;86.09;98905.47;5069008;28;20177;-78
2023/03/14 01:20:12;;;;;;;6.22;1.50;;;;;;;10.26;85.59;98907.44;5068901;28;20032;-78
2023/03/14 01:22:39;;;;;;;9.30;2.05;;;;;;;10.25;85.66;98908.41;5051809;28;20048;-78
2023/03/14 01:25:10;;;;;;;8.57;2.20;;;;;;;10.24;85.62;98912.03;5069765;28;20086;-78
2023/03/14 01:27:35;;;;;;;8.07;1.85;;;;;;;10.23;85.39;98908.56;5068882;28;20040;-77
2023/03/14 01:30:00;;;;;;;9.70;2.00;;;;;;;10.23;84.85;98895.44;5064839;28;20032;-78
2023/03/14 01:32:26;;;;;;;7.78;1.65;;;;;;;10.23;84.98;98889.34;5051819;28;20040;-78
2023/03/14 01:34:54;;;;;;;6.47;1.63;;;;;;;10.20;85.09;98894.91;5069023;28;20020;-78
2023/03/14 01:37:19;;;;;;;5.90;1.65;;;;;;;10.20;85.60;98889.63;5069345;28;20525;-78
2023/03/14 01:39:46;;;;;;;7.18;1.85;;;;;;;10.20;85.15;98889.63;5069411;28;20056;-78
2023/03/14 01:42:15;;;;;;;5.28;1.75;;;;;;;10.17;85.48;98885.53;5068540;28;20028;-78
2023/03/14 01:45:25;;;;;;;7.53;1.70;;;;;;;10.21;86.35;98881.63;5070232;28;20439;-78
2023/03/14 01:47:51;;;;;;;7.95;2.20;;;;;;;10.16;86.24;98883.88;5034131;28;20040;-78
2023/03/14 01:50:18;;;;;;;6.93;1.63;;;;;;;10.14;86.63;98874.50;5070303;28;20064;-78
2023/03/14 01:52:49;;;;;;;9.88;1.83;;;;;;;10.14;86.43;98870.09;5067095;28;20118;-78
2023/03/14 01:55:21;;;;;;;7.53;2.22;;;;;;;10.14;86.57;98859.56;5068065;28;20530;-78
2023/03/14 01:57:56;;;;;;;;;;;;;;;10.19;86.57;98872.22;5051203;28;20025;-78
2023/03/14 02:00:25;;;;;;;8.48;2.38;;;;;;;10.11;86.96;98870.41;5070031;28;20426;-78
2023/03/14 02:02:55;;;;;;;8.13;2.42;;;;;;;10.12;87.49;98858.09;5051942;28;20357;-78
2023/03/14 02:05:28;;;;;;;9.35;2.03;;;;;;;10.12;87.11;98865.97;5062938;28;20104;-78
2023/03/14 02:07:59;;;;;;;7.85;2.38;;;;;;;10.11;87.56;98856.44;5066416;28;20029;-78
2023/03/14 02:10:28;;;;;;;10.68;2.35;;;;;;;10.09;88.27;98855.78;5069080;28;20033;-77
2023/03/14 02:12:56;;;;;;;8.38;2.10;;;;;;;10.10;88.44;98850.38;5068183;28;20416;-77
2023/03/14 02:15:22;;;;;;;11.05;2.40;;;;;;;10.09;88.54;98851.34;5065845;28;20116;-77
2023/03/14 02:17:48;;;;;;;10.40;2.47;;;;;;;10.09;88.50;98867.13;5068613;28;20020;-77
2023/03/14 02:20:41;;;;;;;10.80;2.38;;;;;;;10.09;89.23;98853.97;5069225;28;20435;-77
2023/03/14 02:23:06;;;;;;;;;;;;;;;10.14;88.54;98853.50;5066725;28;20114;-77
2023/03/14 02:25:48;;;;;;;8.70;2.40;;;;;;;10.08;89.34;98859.38;5047077;28;19913;-76
2023/03/14 02:28:14;;;;;;;10.65;2.47;;;;;;;10.03;89.49;98863.31;5064228;28;20346;-77
2023/03/14 02:30:40;;;;;;;7.65;2.38;;;;;;;10.01;89.63;98846.06;5068423;28;20036;-77
2023/03/14 02:33:14;;;;;;;9.80;2.50;;;;;;;10.02;89.84;98842.47;5067695;28;20051;-76
2023/03/14 02:35:48;;;;;;;9.88;2.38;;;;;;;10.00;89.68;98834.72;5068919;28;20032;-78
2023/03/14 02:38:27;;;;;;;8.93;2.75;;;;;;;9.95;89.98;98833.53;5049775;28;20478;-78
2023/03/14 02:40:52;;;;;;;11.02;2.70;;;;;;;9.88;90.56;98833.34;5062285;28;20068;-78
2023/03/14 02:43:17;;;;;;;12.57;2.88;;;;;;;9.88;91.00;98828.09;5064088;28;20021;-78
2023/03/14 02:45:45;;;;;;;12.63;2.90;;;;;;;9.84;91.28;98832.03;5066854;28;20032;-78
2023/03/14 02:48:18;;;;;;;11.13;3.00;;;;;;;9.85;90.92;98833.69;5068362;28;20028;-78
2023/03/14 02:50:46;;;;;;;16.25;3.22;;;;;;;9.88;90.82;98835.16;5066398;28;20116;-78
2023/03/14 02:53:15;;;;;;;16.30;3.35;;;;;;;9.86;91.23;98835.31;5048512;28;20127;-78
2023/03/14 02:55:45;;;;;;;11.10;2.67;;;;;;;9.88;90.83;98835.97;5067852;28;20417;-77
2023/03/14 02:58:10;;;;;;;9.75;2.50;;;;;;;9.90;91.03;98831.41;5065182;28;20059;-78
2023/03/14 03:00:35;;;;;;;11.05;2.60;;;;;;;9.92;91.27;98839.94;5051938;28;20028;-78
2023/03/14 03:03:01;;;;;;;12.77;2.88;;;;;;;9.91;91.17;98837.47;5059424;28;20485;-78
2023/03/14 03:05:26;;;;;;;10.55;2.75;;;;;;;9.91;90.96;98843.53;5066685;28;20502;-78
2023/03/14 03:07:52;;;;;;;12.35;2.90;;;;;;;9.90;90.91;98836.66;5049163;28;20116;-78
2023/03/14 03:10:17;;;;;;;10.75;2.53;;;;;;;9.90;91.28;98841.91;5050451;28;20025;-78
2023/03/14 03:12:43;;;;;;;10.07;2.58;;;;;;;9.93;90.87;98846.00;5067911;28;20361;-78
2023/03/14 03:15:09;;;;;;;11.10;2.83;;;;;;;9.93;91.01;98849.47;5067283;28;20481;-78
2023/03/14 03:17:35;;;;;;;11.43;2.50;;;;;;;9.93;90.72;98846.84;5055663;28;20036;-78
2023/03/14 03:20:00;;;;;;;9.88;2.38;;;;;;;9.93;91.11;98844.22;5047497;28;20025;-78
2023/03/14 03:22:26;;;;;;;10.13;2.40;;;;;;;9.94;90.75;98837.97;5060824;28;20032;-78
2023/03/14 03:24:54;;;;;;;12.88;2.53;;;;;;;9.92;90.83;98837.31;5068705;28;20047;-77
2023/03/14 03:27:19;;;;;;;12.25;2.42;;;;;;;9.90;91.11;98827.94;5049780;28;20128;-78
2023/03/14 03:29:45;;;;;;;8.98;2.53;;;;;;;9.91;90.73;98833.03;5068013;28;20099;-78
2023/03/14 03:32:10;;;;;;;8.75;2.30;;;;;;;9.91;90.79;98827.78;5050348;28;20753;-78
2023/03/14 03:34:35;;;;;;;9.68;2.33;;;;;;;9.88;90.72;98830.72;5053414;28;20044;-79
2023/03/14 03:37:01;;;;;;;9.70;2.22;;;;;;;9.90;90.83;98830.56;5039495;28;20037;-77
2023/03/14 03:39:26;;;;;;;8.63;2.30;;;;;;;9.90;90.61;98828.75;5005526;28;1218256;-77
2023/03/14 03:41:58;;;;;;;11.10;2.53;;;;;;;9.88;90.49;98830.72;5064327;28;20044;-78
2023/03/14 03:44:23;;;;;;;9.57;2.37;;;;;;;9.88;90.24;98816.78;5048375;28;20439;-77
2023/03/14 03:46:48;;;;;;;9.95;2.60;;;;;;;9.88;90.37;98814.16;5068352;28;20295;-77
2023/03/14 03:49:14;;;;;;;8.60;2.05;;;;;;;9.86;90.28;98816.94;5067022;28;20385;-77
2023/03/14 03:51:39;;;;;;;7.28;1.80;;;;;;;9.86;90.26;98822.19;5064460;28;20024;-78
2023/03/14 03:54:05;;;;;;;9.55;2.17;;;;;;;9.86;90.36;98816.13;5056849;28;20036;-77
2023/03/14 03:56:31;;;;;;;8.32;1.90;;;;;;;9.84;91.08;98821.53;5046856;28;20052;-77
2023/03/14 03:58:56;;;;;;;10.70;2.35;;;;;;;9.79;93.89;98808.06;5068002;28;20046;-78
2023/03/14 04:01:22;;;;;;;6.50;1.75;;;;;;;9.72;94.82;98814.91;5048423;28;20477;-78
2023/03/14 04:03:47;;;;;;;8.15;1.80;;;;;;;9.63;94.75;98813.25;5046803;28;20029;-78
2023/03/14 04:06:15;;;;;;;5.80;1.60;;;;;;;9.57;96.20;98813.84;5068432;28;20492;-77
2023/03/14 04:08:41;;;;;;;7.80;2.00;;;;;;;9.52;95.78;98816.13;5048345;28;20021;-78
2023/03/14 04:11:07;;;;;;;8.80;1.75;;;;;;;9.50;95.58;98812.84;5050148;28;20063;-77
2023/03/14 04:13:32;;;;;;;7.70;1.80;;;;;;;9.44;95.14;98806.41;5065289;28;20158;-78
2023/03/14 04:15:58;;;;;;;4.80;1.50;;;;;;;9.43;95.43;98800.34;5052717;28;20063;-78
2023/03/14 04:18:27;;;;;;;7.72;1.73;;;;;;;9.43;95.28;98802.16;5049645;28;20122;-78
2023/03/14 04:20:54;;;;;;;5.70;1.58;;;;;;;9.41;95.47;98802.31;5067554;28;20028;-78
2023/03/14 04:23:19;;;;;;;7.53;2.00;;;;;;;9.42;95.77;98803.94;5052639;28;20032;-78
2023/03/14 04:25:45;;;;;;;6.00;2.28;;;;;;;9.40;96.57;98813.78;5070035;28;20024;-78
2023/03/14 04:28:10;;;;;;;4.57;1.60;;;;;;;9.41;97.47;98799.69;5072012;28;20025;-77
2023/03/14 04:30:35;;;;;;;5.35;1.52;;;;;;;9.39;98.29;98798.19;5071329;28;20031;-77
2023/03/14 04:33:01;;;;;;;5.55;1.70;;;;;;;9.38;99.14;98794.75;5071275;28;20704;-77
2023/03/14 04:35:27;;;;;;;6.32;1.92;;;;;;;9.36;99.66;98804.56;5068235;28;20027;-77
2023/03/14 04:37:52;;;;;;;5.43;1.50;;;;;;;9.34;100.00;98801.28;5069898;28;20038;-77
2023/03/14 04:40:18;;;;;;;5.32;1.48;;;;;;;9.34;100.00;98803.91;5071689;28;20060;-77
2023/03/14 04:42:43;;;;;;;5.95;1.58;;;;;;;9.32;100.00;98790.13;5070817;28;20020;-77
2023/03/14 04:45:09;;;;;;;4.57;1.30;;;;;;;9.29;100.00;98795.69;5052740;28;20363;-77
2023/03/14 04:47:34;;;;;;;5.45;1.55;;;;;;;9.24;100.00;98797.94;5049937;28;20074;-77
2023/03/14 04:50:00;;;;;;;5.63;1.40;;;;;;;9.17;100.00;98796.91;5066462;28;20128;-78
2023/03/14 04:52:26;;;;;;;5.95;1.50;;;;;;;9.07;100.00;98794.38;5067553;28;20024;-78
2023/03/14 04:54:52;;;;;;;5.10;1.50;;;;;;;9.02;100.00;98793.22;5052071;28;20017;-77
2023/03/14 04:57:17;;;;;;;4.47;1.45;;;;;;;8.96;100.00;98797.28;5070423;28;20024;-78
2023/03/14 04:59:43;;;;;;;5.93;1.50;;;;;;;8.90;100.00;98804.94;5068667;28;20016;-77
2023/03/14 05:02:08;;;;;;;7.57;1.90;;;;;;;8.86;100.00;98803.59;5058133;28;20043;-77
2023/03/14 05:04:33;;;;;;;4.35;1.80;;;;;;;8.84;100.00;98806.38;5068808;28;20157;-77
2023/03/14 05:06:59;;;;;;;6.55;1.50;;;;;;;8.83;100.00;98804.72;5067970;28;20028;-77
2023/03/14 05:09:25;;;;;;;6.10;1.70;;;;;;;8.82;100.00;98799.63;5072832;28;20082;-77
2023/03/14 05:11:50;;;;;;;4.55;1.65;;;;;;;8.77;100.00;98792.19;5069819;28;20020;-77
2023/03/14 05:14:16;;;;;;;5.35;1.73;;;;;;;8.76;100.00;98794.00;5069698;28;20024;-79
2023/03/14 05:16:41;;;;;;;6.70;2.08;;;;;;;8.74;100.00;98793.31;5069609;28;20031;-77
2023/03/14 05:19:06;;;;;;;6.50;1.98;;;;;;;8.71;100.00;98801.50;5056921;28;20029;-77
2023/03/14 05:21:32;;;;;;;6.30;2.22;;;;;;;8.74;100.00;98795.94;5054978;28;20090;-77
2023/03/14 05:23:57;;;;;;;5.57;2.40;;;;;;;8.74;100.00;98795.94;5068311;28;20025;-77
2023/03/14 05:26:22;;;;;;;5.40;2.10;;;;;;;8.71;100.00;98804.13;5067386;28;20051;-78
2023/03/14 05:28:48;;;;;;;7.28;2.60;;;;;;;8.72;100.00;98797.91;5068308;28;20024;-78
2023/03/14 05:31:13;;;;;;;6.03;2.45;;;;;;;8.71;100.00;98779.69;5068334;28;20035;-76
2023/03/14 05:33:39;;;;;;;7.05;2.70;;;;;;;8.69;100.00;98787.72;5068536;28;20028;-78
2023/03/14 05:36:05;;;;;;;9.25;2.78;;;;;;;8.70;100.00;98778.06;5048865;28;20031;-77
2023/03/14 05:38:31;;;;;;;7.22;2.60;;;;;;;8.69;100.00;98777.22;5058944;28;20024;-77
2023/03/14 05:40:56;;;;;;;6.72;2.42;;;;;;;8.68;100.00;98786.06;5071169;28;20520;-77
2023/03/14 05:43:21;;;;;;;8.80;3.13;;;;;;;8.66;100.00;98777.53;5068783;28;20116;-77
2023/03/14 05:45:47;;;;;;;5.97;2.90;;;;;;;8.68;100.00;98775.59;5053025;28;20093;-77
2023/03/14 05:48:12;;;;;;;6.60;2.80;;;;;;;8.69;100.00;98774.63;5069415;28;20138;-77
2023/03/14 05:50:38;;;;;;;7.95;2.80;;;;;;;8.69;100.00;98774.63;5070178;28;20024;-78
2023/03/14 05:53:03;;;;;;;5.68;2.90;;;;;;;8.67;100.00;98770.50;5068234;28;20150;-78
2023/03/14 05:55:28;;;;;;;6.82;3.13;;;;;;;8.67;100.00;98768.69;5050015;28;20118;-77
2023/03/14 05:57:54;;;;;;;7.32;3.20;;;;;;;8.67;100.00;98768.69;5052744;28;20021;-77
2023/03/14 06:00:20;;;;;;;6.53;3.08;;;;;;;8.67;100.00;98771.31;5050890;28;20078;-76
2023/03/14 06:02:45;;;;;;;8.93;3.83;;;;;;;8.64;100.00;98761.16;5067594;28;20031;-77
2023/03/14 06:05:11;;;;;;;6.55;3.55;;;;;;;8.64;100.00;98769.00;5068989;28;20495;-77
2023/03/14 06:07:37;;;;;;;7.20;3.45;;;;;;;8.64;100.00;98763.75;5068490;28;20536;-78
2023/03/14 06:10:03;;;;;;;8.20;3.58;;;;;;;8.66;100.00;98767.06;5067473;28;20031;-77
2023/03/14 06:12:28;;;;;;;7.53;3.70;;;;;;;8.67;100.00;98760.84;5065890;28;20037;-77
2023/03/14 06:14:53;;;;;;;9.15;4.05;;;;;;;8.67;100.00;98762.63;5047056;28;20021;-77
2023/03/14 06:17:19;;;;;;;8.98;4.45;;;;;;;8.68;100.00;98765.09;5060052;28;20035;-77
2023/03/14 06:19:44;;;;;;;8.57;4.35;;;;;;;8.67;100.00;98767.88;5069403;28;20779;-77
2023/03/14 06:22:09;;;;;;;10.20;4.50;;;;;;;8.69;100.00;98766.75;5050227;28;20035;-77
2023/03/14 06:24:35;;;;;;;8.70;4.80;;;;;;;8.71;100.00;98767.41;5068735;28;20381;-77
2023/03/14 06:27:02;;;;;;;10.40;4.68;;;;;;;8.72;100.00;98769.06;5050846;28;20480;-78
2023/03/14 06:29:28;;;;;;;9.32;4.95;;;;;;;8.74;100.00;98771.53;5066942;28;20020;-78
2023/03/14 06:31:53;;;;;;;8.80;4.57;;;;;;;8.75;100.00;98770.56;5053188;28;20039;-78
2023/03/14 06:34:19;;;;;;;9.57;5.10;;;;;;;8.78;100.00;98770.25;5066600;28;20029;-78
2023/03/14 06:36:44;;;;;;;9.52;5.00;;;;;;;8.79;100.00;98772.72;5065270;28;20032;-79
2023/03/14 06:39:09;;;;;;;9.30;5.25;;;;;;;8.82;100.00;98771.63;5056251;28;20029;-78
2023/03/14 06:41:35;;;;;;;7.72;4.63;;;;;;;8.83;100.00;98782.94;5051911;28;20096;-78
2023/03/14 06:44:00;;;;;;;8.77;4.82;;;;;;;8.87;100.00;98784.25;5060178;28;20024;-78
2023/03/14 06:46:26;;;;;;;8.50;5.25;;;;;;;8.90;100.00;98783.97;5050884;28;20082;-77
2023/03/14 06:48:54;;;;;;;9.20;5.10;;;;;;;8.94;100.00;98780.03;5050972;28;20032;-78
2023/03/14 06:51:20;;;;;;;9.20;5.22;;;;;;;9.00;100.00;98779.44;5068280;28;20036;-78
2023/03/14 06:53:45;;;;;;;7.45;5.00;;;;;;;9.07;100.00;98775.19;5069040;28;20094;-78
2023/03/14 06:56:11;;;;;;;10.15;5.05;;;;;;;9.10;100.00;98785.38;5085055;28;20038;-76
2023/03/14 06:58:36;;;;;;;9.88;4.90;;;;;;;9.17;100.00;98790.84;5077849;28;20023;-77
2023/03/14 07:01:02;;;;;;;11.02;4.85;;;;;;;9.17;100.00;98791.66;5075677;28;20032;-77
2023/03/14 07:03:27;;;;;;;8.43;4.78;;;;;;;9.19;100.00;98794.13;5076686;28;20065;-76
2023/03/14 07:05:53;;;;;;;7.88;4.45;;;;;;;9.18;100.00;98795.91;5079567;28;20035;-77
2023/03/14 07:08:18;;;;;;;7.30;4.80;;;;;;;9.18;100.00;98802.97;5076759;28;20107;-75
2023/03/14 07:10:43;;;;;;;9.02;4.90;;;;;;;9.15;100.00;98793.59;5067418;28;20423;-77
2023/03/14 07:13:09;;;;;;;5.70;4.40;;;;;;;9.14;100.00;98801.63;5067605;28;20028;-76
2023/03/14 07:15:34;;;;;;;7.72;5.32;;;;;;;9.13;100.00;98811.31;5068974;28;20112;-76
2023/03/14 07:17:59;;;;;;;7.90;4.72;;;;;;;9.14;100.00;98818.19;5050330;28;20021;-76
2023/03/14 07:20:25;;;;;;;5.53;4.43;;;;;;;9.11;100.00;98823.75;5049946;28;20029;-76
2023/03/14 07:22:50;;;;;;;7.68;4.60;;;;;;;9.12;100.00;98841.16;5069040;28;20111;-76
2023/03/14 07:25:17;;;;;;;8.93;4.43;;;;;;;9.09;100.00;98854.56;5049637;28;20021;-77
2023/03/14 07:27:44;;;;;;;4.05;3.28;;;;;;;8.98;100.00;98875.81;5050256;28;20034;-77
2023/03/14 07:30:11;;;;;;;4.32;2.30;;;;;;;8.84;100.00;98926.19;5064984;28;20047;-76
2023/03/14 07:32:36;;;;;;;4.38;2.03;;;;;;;8.71;100.00;98937.00;5057880;28;20068;-78
2023/03/14 07:35:02;;;;;;;3.28;1.67;;;;;;;8.53;100.00;98939.63;5068168;28;20066;-75
2023/03/14 07:37:27;;;;;;;1.77;1.40;;;;;;;8.41;100.00;98948.66;5049403;28;20079;-73
2023/03/14 07:39:53;;;;;;;2.10;1.10;;;;;;;8.30;100.00;98969.75;5048282;28;20044;-75
2023/03/14 07:42:18;;;;;;;2.67;0.80;;;;;;;8.17;100.00;98976.16;5067188;28;20032;-74
2023/03/14 07:44:43;;;;;;;2.95;0.80;;;;;;;8.02;100.00;98987.28;5070901;28;20093;-77
2023/03/14 07:47:09;;;;;;;2.38;0.63;;;;;;;7.97;100.00;98992.91;5067709;28;20404;-76
2023/03/14 07:49:34;;;;;;;1.80;0.63;;;;;;;7.89;100.00;99011.13;5039146;28;20021;-76
2023/03/14 07:51:59;;;;;;;1.90;0.70;;;;;;;7.79;100.00;99016.38;5065158;28;20024;-76
2023/03/14 07:54:25;;;;;;;2.83;1.15;;;;;;;7.74;100.00;99025.63;5067667;28;20029;-75
2023/03/14 07:57:13;;;;;;;3.20;1.45;;;;;;;7.68;100.00;99029.63;5070904;28;20086;-76
2023/03/14 07:59:38;;;;;;;2.22;1.52;;;;;;;7.63;100.00;99044.13;5071226;28;20027;-75
2023/03/14 08:02:09;;;;;;;3.78;2.05;;;;;;;7.58;100.00;99048.91;5068875;28;20028;-76
2023/03/14 08:04:34;;;;;;;4.55;2.30;;;;;;;7.60;100.00;99060.06;5057530;28;20072;-75
2023/03/14 08:07:00;;;;;;;3.75;2.50;;;;;;;7.53;100.00;99055.38;5051780;28;20032;-75
2023/03/14 08:09:26;;;;;;;4.75;2.40;;;;;;;7.52;100.00;99068.63;5070967;28;20063;-76
2023/03/14 08:11:51;;;;;;;4.07;1.95;;;;;;;7.50;100.00;99076.59;5071516;28;20024;-75
2023/03/14 08:14:17;;;;;;;3.97;1.80;;;;;;;7.54;100.00;99093.69;5077054;28;20036;-76
2023/03/14 08:16:42;;;;;;;1.73;1.23;;;;;;;7.48;100.00;99099.47;5081166;28;20026;-76
2023/03/14 08:19:08;;;;;;;2.85;1.15;;;;;;;7.42;100.00;99109.66;5063845;28;20116;-76
2023/03/14 08:21:34;;;;;;;2.72;1.20;;;;;;;7.44;100.00;99116.41;5089279;28;20103;-76
2023/03/14 08:24:00;;;;;;;2.03;1.00;;;;;;;7.42;100.00;99120.94;5078640;28;20223;-76
2023/03/14 08:26:26;;;;;;;3.33;1.10;;;;;;;7.44;100.00;99134.72;5076190;28;20028;-75
2023/03/14 08:28:54;;;;;;;2.72;1.27;;;;;;;7.44;100.00;99147.81;5075361;28;20489;-76
2023/03/14 08:31:19;;;;;;;3.20;1.30;;;;;;;7.49;100.00;99153.44;5068777;28;20036;-75
2023/03/14 08:33:44;;;;;;;3.85;1.35;;;;;;;7.47;100.00;99154.56;5077679;28;20039;-77
2023/03/14 08:36:10;;;;;;;5.22;1.70;;;;;;;7.51;100.00;99167.22;5078224;28;20392;-76
2023/03/14 08:38:36;;;;;;;3.95;1.50;;;;;;;7.53;100.00;99180.19;5081873;28;20025;-76
2023/03/14 08:41:03;;;;;;;5.80;2.25;;;;;;;7.48;100.00;99192.84;5086940;28;20118;-76
2023/03/14 08:43:29;;;;;;;4.85;1.85;;;;;;;7.44;100.00;99191.47;5066071;28;20438;-76
2023/03/14 08:45:59;;;;;;;5.25;2.10;;;;;;;7.44;100.00;99207.97;5091021;28;20069;-78
2023/03/14 08:48:25;;;;;;;4.45;1.80;;;;;;;7.49;100.00;99211.03;5082016;28;20037;-76
2023/03/14 08:50:50;;;;;;;8.45;2.30;;;;;;;7.48;100.00;99217.22;5090541;28;20024;-76
2023/03/14 08:53:30;;;;;;;5.38;1.80;;;;;;;7.45;100.00;99220.09;5078549;28;20055;-82
2023/03/14 08:55:56;;;;;;;4.95;1.77;;;;;;;7.50;100.00;99223.16;5078277;28;20026;-82
2023/03/14 08:58:29;;;;;;;7.20;2.63;;;;;;;7.52;100.00;99241.31;5088273;28;20476;-82
2023/03/14 09:01:11;;;;;;;8.82;2.58;;;;;;;7.60;100.00;99243.28;5072583;28;20036;-77
2023/03/14 09:03:37;;;;;;;9.90;2.97;;;;;;;7.58;100.00;99255.66;5071992;28;20024;-77
2023/03/14 09:06:04;;;;;;;6.07;2.53;;;;;;;7.60;100.00;99258.97;5076668;28;20024;-77
2023/03/14 09:08:30;;;;;;;5.50;2.75;;;;;;;7.55;100.00;99268.06;5090880;28;20024;-76
2023/03/14 09:10:55;;;;;;;3.55;1.67;;;;;;;7.54;100.00;99281.28;5085512;28;20032;-77
2023/03/14 09:13:21;;;;;;;3.90;1.90;;;;;;;7.64;100.00;99290.00;5078209;28;20595;-77
2023/03/14 09:15:54;;;;;;;9.55;2.40;;;;;;;7.72;100.00;99299.81;5076451;28;20035;-77
2023/03/14 09:18:20;;;;;;;6.38;2.45;;;;;;;7.80;100.00;99303.41;5064405;28;20028;-77
2023/03/14 09:20:45;;;;;;;6.65;1.90;;;;;;;7.91;100.00;99314.72;5078268;28;20059;-77
2023/03/14 09:23:11;;;;;;;6.15;2.17;;;;;;;7.90;100.00;99329.63;5059172;28;20048;-77
2023/03/14 09:25:36;;;;;;;4.57;1.80;;;;;;;7.99;100.00;99327.97;5067117;28;20054;-77
2023/03/14 09:28:02;;;;;;;5.10;1.65;;;;;;;7.94;100.00;99333.63;5071214;28;21006;-77
2023/03/14 09:30:27;;;;;;;3.42;1.77;;;;;;;7.87;100.00;99356.06;5071221;28;20086;-77
2023/03/14 09:33:06;;;;;;;5.65;1.70;;;;;;;7.84;100.00;99372.03;5056589;28;20019;-77
2023/03/14 09:35:37;;;;;;;4.03;1.25;;;;;;;7.71;100.00;99379.31;5068456;28;20024;-78
2023/03/14 09:38:05;;;;;;;4.18;1.13;;;;;;;7.64;100.00;99394.72;5084611;28;20369;-78
2023/03/14 09:41:09;;;;;;;1.65;0.80;;;;;;;7.60;100.00;99400.31;5068991;28;20120;-78
2023/03/14 09:43:36;;;;;;;2.60;0.63;;;;;;;7.33;100.00;99430.47;5073359;28;20038;-78
2023/03/14 09:46:03;;;;;;;3.60;0.80;;;;;;;7.18;100.00;99453.47;5082540;28;20032;-78
2023/03/14 09:48:32;;;;;;;1.55;0.60;;;;;;;7.11;100.00;99467.19;5073791;28;20043;-78
2023/03/14 09:51:10;;;;;;;2.92;0.80;;;;;;;6.94;100.00;99486.03;5078730;28;20077;-77
2023/03/14 09:53:41;;;;;;;1.92;0.60;;;;;;;6.66;100.00;99503.09;5064999;28;20036;-78
2023/03/14 09:56:25;;;;;;;2.55;0.70;;;;;;;6.55;100.00;99514.41;5069963;28;20016;-78
2023/03/14 09:59:00;;;;;;;2.22;0.80;;;;;;;6.43;100.00;99533.66;5078669;28;20024;-78
2023/03/14 10:01:28;;;;;;;1.80;0.50;;;;;;;6.33;100.00;99537.91;5088978;28;20105;-78
2023/03/14 10:03:57;;;;;;;4.32;1.15;;;;;;;6.44;100.00;99548.38;5089304;28;20016;-78
2023/03/14 10:06:30;;;;;;;3.05;0.98;;;;;;;6.59;100.00;99555.03;5088676;28;20012;-77
2023/03/14 10:08:59;;;;;;;5.90;0.90;;;;;;;6.70;100.00;99568.06;5075842;28;20031;-78
2023/03/14 10:11:30;;;;;;;3.00;0.95;;;;;;;6.85;100.00;99569.50;5070065;28;20056;-77
2023/03/14 10:14:08;;;;;;;4.40;1.38;;;;;;;7.00;100.00;99595.38;5067224;28;20012;-77
2023/03/14 10:16:52;;;;;;;4.45;1.27;;;;;;;7.26;100.00;99606.38;5069863;28;20099;-78
2023/03/14 10:19:17;;;;;;;5.63;1.23;;;;;;;7.27;99.56;99615.91;5073302;28;20020;-77
2023/03/14 10:21:49;;;;;;;4.57;1.13;;;;;;;7.29;100.00;99633.13;5084089;28;20481;-77
2023/03/14 10:24:33;;;;;;;6.67;1.77;;;;;;;7.37;99.71;99633.34;5076610;28;20024;-77
2023/03/14 10:27:02;;;;;;;5.80;1.27;;;;;;;7.34;99.92;99651.06;5081515;28;20082;-78
2023/03/14 10:29:28;;;;;;;7.53;1.30;;;;;;;7.30;98.43;99655.72;5050633;28;20393;-78
2023/03/14 10:32:00;;;;;;;7.30;1.50;;;;;;;7.26;95.62;99675.25;5073401;28;20024;-78
2023/03/14 10:34:37;;;;;;;6.00;1.70;;;;;;;7.48;95.73;99677.78;5076771;28;20016;-78
2023/03/14 10:37:25;;;;;;;7.57;1.55;;;;;;;7.66;93.73;99683.34;5049164;28;20056;-77
2023/03/14 10:39:53;;;;;;;7.13;1.73;;;;;;;7.85;95.20;99698.41;5068167;28;20049;-77
2023/03/14 10:42:31;;;;;;;10.43;1.88;;;;;;;7.78;93.89;99710.34;5070333;28;20757;-77
2023/03/14 10:45:27;;;;;;;9.75;2.33;;;;;;;7.62;90.39;99715.97;5071467;28;20035;-81
2023/03/14 10:48:05;;;;;;;11.90;2.72;;;;;;;7.45;90.45;99727.75;5065566;28;20510;-78
2023/03/14 10:50:33;;;;;;;12.80;2.40;;;;;;;7.36;95.09;99738.97;5064452;28;20024;-78
2023/03/14 10:56:59;;;;;;;9.38;2.30;;;;;;;7.27;97.94;99773.69;5082168;28;20115;-78
2023/03/14 10:59:46;;;;;;;10.18;2.25;;;;;;;6.99;97.68;99793.28;4983809;28;20117;-78
2023/03/14 11:06:04;;;;;;;13.10;2.80;;;;;;;6.32;98.78;99792.25;4981291;28;20077;-78
2023/03/14 11:08:42;;;;;;;17.20;3.20;;;;;;;6.36;99.07;99809.34;4969259;28;20070;-78
2023/03/14 11:11:18;;;;;;;13.43;2.88;;;;;;;6.56;100.00;99814.78;4953782;28;20170;-78
2023/03/14 11:14:25;;;;;;;11.57;2.92;;;;;;;6.72;100.00;99830.16;4966676;28;20046;-77
2023/03/14 11:17:12;;;;;;;10.75;2.67;;;;;;;6.94;99.84;99836.41;5007841;28;20087;-77
2023/03/14 11:19:51;;;;;;;16.08;3.15;;;;;;;7.02;99.36;99844.53;5027257;28;20041;-77
2023/03/14 11:22:39;;;;;;;13.85;2.97;;;;;;;7.05;96.39;99855.56;5011223;28;20025;-78
2023/03/14 11:26:19;;;;;;;12.50;2.67;;;;;;;7.11;97.92;99857.72;5028454;28;20493;-78
2023/03/14 11:28:56;;;;;;;13.18;3.13;;;;;;;6.98;99.10;99864.00;5025737;28;20108;-78
2023/03/14 11:31:31;;;;;;;10.88;2.70;;;;;;;6.94;100.00;99878.25;5077139;28;20434;-78
2023/03/14 11:34:34;;;;;;;11.48;3.05;;;;;;;6.96;100.00;99890.28;5082014;28;20042;-78
2023/03/14 11:37:44;;;;;;;17.60;3.70;;;;;;;6.84;100.00;99906.88;5082257;28;20033;-79
2023/03/14 11:40:46;;;;;;;15.20;3.05;;;;;;;6.63;100.00;99932.78;5007524;28;20054;-79
2023/03/14 11:43:41;;;;;;;11.02;2.58;;;;;;;6.31;100.00;99939.47;4995474;28;20049;-78
2023/03/14 11:46:42;;;;;;;12.45;2.90;;;;;;;6.01;100.00;99940.69;5051648;28;20028;-77
2023/03/14 11:49:28;;;;;;;15.55;3.67;;;;;;;5.83;100.00;99941.94;5009536;28;20064;-77
2023/03/14 11:51:59;;;;;;;19.27;4.00;;;;;;;6.03;100.00;99949.25;5052954;28;20020;-76